Time;durP1;ratioP1;P1;durP2;ratioP2;P2;SDS_P1;SDS_P2;PMS_P1;PMS_P2;Temp;Humidity;BMP_temperature;BMP_pressure;BME280_temperature;BME280_humidity;BME280_pressure;Samples;Min_cycle;Max_cycle;Signal;HPM_P1;HPM_P2
2021/09/21 00:01:31;;;;;;;18.80;14.40;;;;;;;6.78;92.10;99675.13;112144;1196;65915;-78
2021/09/21 00:03:58;;;;;;;16.60;14.50;;;;;;;6.76;92.26;99672.92;111826;1195;61014;-78
2021/09/21 00:06:25;;;;;;;13.80;12.40;;;;;;;6.72;92.29;99671.48;111789;1196;62460;-78
2021/09/21 00:08:51;;;;;;;14.80;12.10;;;;;;;6.69;92.26;99672.48;112136;1195;61075;-78
2021/09/21 00:11:18;;;;;;;14.30;12.80;;;;;;;6.67;92.21;99672.59;112170;1187;61062;-81
2021/09/21 00:13:45;;;;;;;15.00;13.00;;;;;;;6.63;92.12;99674.48;111833;1196;67066;-78
2021/09/21 00:16:11;;;;;;;16.90;13.30;;;;;;;6.58;92.11;99677.85;112120;1195;61004;-78
2021/09/21 00:18:38;;;;;;;14.90;12.50;;;;;;;6.56;92.03;99679.73;112140;1194;63759;-78
2021/09/21 00:21:05;;;;;;;16.00;13.50;;;;;;;6.46;91.90;99680.63;112102;1196;61042;-80
2021/09/21 00:23:32;;;;;;;13.90;12.50;;;;;;;6.39;92.04;99677.92;112165;1196;61077;-79
2021/09/21 00:25:59;;;;;;;15.60;13.60;;;;;;;6.32;91.97;99681.02;112141;1195;64755;-78
2021/09/21 00:28:26;;;;;;;14.50;13.00;;;;;;;6.26;92.05;99683.02;111894;1195;61159;-79
2021/09/21 00:30:53;;;;;;;15.10;13.30;;;;;;;6.21;92.07;99684.27;112126;1196;62640;-80
2021/09/21 00:33:23;;;;;;;15.90;12.50;;;;;;;6.15;92.07;99686.41;112146;1195;61033;-78
2021/09/21 00:35:50;;;;;;;;;;;;;;;6.09;92.14;99690.35;112184;1195;61043;-80
2021/09/21 00:38:19;;;;;;;15.00;12.70;;;;;;;6.01;92.21;99689.56;112164;1195;65908;-80
2021/09/21 00:40:46;;;;;;;17.50;15.60;;;;;;;5.98;92.40;99688.46;112220;1195;61040;-79
2021/09/21 00:43:21;;;;;;;18.40;16.00;;;;;;;6.02;92.86;99688.84;112162;1195;62676;-80
2021/09/21 00:45:49;;;;;;;16.20;14.30;;;;;;;6.13;93.15;99681.56;112241;1195;61068;-81
2021/09/21 00:48:15;;;;;;;18.30;16.40;;;;;;;6.18;92.93;99682.78;112261;1195;61071;-80
2021/09/21 00:50:42;;;;;;;17.90;16.00;;;;;;;6.15;92.74;99689.57;112134;1195;66017;-81
2021/09/21 00:53:09;;;;;;;18.30;15.30;;;;;;;6.13;92.73;99686.83;111829;1195;60984;-81
2021/09/21 00:55:35;;;;;;;15.00;13.50;;;;;;;6.12;92.64;99689.38;112159;1195;63691;-80
2021/09/21 00:58:02;;;;;;;19.20;17.10;;;;;;;6.11;92.63;99685.87;112181;1196;61007;-80
2021/09/21 01:00:29;;;;;;;18.80;16.80;;;;;;;6.10;92.67;99677.27;112145;1195;60960;-80
2021/09/21 01:02:56;;;;;;;18.50;16.60;;;;;;;6.09;92.73;99676.98;112123;1196;66035;-80
2021/09/21 01:05:23;;;;;;;18.30;16.40;;;;;;;6.01;92.61;99680.61;112095;1196;61080;-78
2021/09/21 01:07:50;;;;;;;18.80;16.90;;;;;;;5.94;92.61;99679.60;112126;1195;64040;-78
2021/09/21 01:10:20;;;;;;;18.60;16.60;;;;;;;5.87;92.64;99681.61;111810;1195;60991;-78
2021/09/21 01:12:47;;;;;;;;;;;;;;;5.75;92.40;99684.34;112082;1195;60976;-78
2021/09/21 01:15:14;;;;;;;25.60;22.00;;;;;;;5.64;92.66;99680.16;112146;1195;65706;-77
2021/09/21 01:17:41;;;;;;;26.40;23.60;;;;;;;5.60;93.01;99685.21;112208;1196;61042;-78
2021/09/21 01:20:10;;;;;;;30.00;26.40;;;;;;;5.59;93.19;99684.23;111899;1196;63835;-78
2021/09/21 01:22:37;;;;;;;28.50;25.50;;;;;;;5.57;93.13;99679.88;112201;1195;61055;-79
2021/09/21 01:25:06;;;;;;;27.40;24.10;;;;;;;5.51;93.17;99681.14;112175;1196;61044;-78
2021/09/21 01:27:33;;;;;;;29.70;24.80;;;;;;;5.42;93.09;99684.63;111931;1195;66060;-78
2021/09/21 01:30:01;;;;;;;31.50;28.30;;;;;;;5.35;93.26;99685.05;112149;1196;61084;-78
2021/09/21 01:32:28;;;;;;;32.40;27.50;;;;;;;5.30;93.50;99688.58;112141;1195;64011;-78
2021/09/21 01:34:54;;;;;;;33.40;26.90;;;;;;;5.28;93.90;99685.96;112143;1195;60952;-78
2021/09/21 01:37:23;;;;;;;31.80;26.80;;;;;;;5.29;93.97;99680.67;112171;1197;60980;-78
2021/09/21 01:39:50;;;;;;;31.20;26.80;;;;;;;5.28;93.98;99679.27;112180;1195;64912;-78
2021/09/21 01:42:17;;;;;;;28.10;24.00;;;;;;;5.26;93.92;99674.05;112163;1195;61065;-78
2021/09/21 01:44:43;;;;;;;27.20;23.70;;;;;;;5.23;94.01;99671.54;112101;1196;64020;-78
2021/09/21 01:47:10;;;;;;;26.80;22.80;;;;;;;5.19;94.06;99665.86;111853;1195;61125;-78
2021/09/21 01:52:42;;;;;;;24.00;21.40;;;;;;;5.09;94.01;99667.44;111842;1196;66992;-78
2021/09/21 02:00:39;;;;;;;34.90;29.20;;;;;;;5.00;94.90;99660.01;112127;1195;61014;-78
2021/09/21 02:03:06;;;;;;;36.70;31.80;;;;;;;5.02;95.39;99663.27;111862;1195;59854;-78
2021/09/21 02:05:33;;;;;;;39.10;32.00;;;;;;;5.05;95.58;99663.16;112198;1196;65997;-78
2021/09/21 02:07:59;;;;;;;37.30;30.60;;;;;;;5.08;95.73;99668.88;112185;1195;61142;-78
2021/09/21 02:10:26;;;;;;;34.00;29.20;;;;;;;5.10;95.81;99673.73;111849;1195;63683;-79
2021/09/21 02:12:53;;;;;;;33.00;29.10;;;;;;;5.12;95.79;99676.13;112139;1195;61072;-77
2021/09/21 02:15:22;;;;;;;31.80;27.10;;;;;;;5.14;95.90;99678.91;111939;1196;61195;-78
2021/09/21 02:17:49;;;;;;;31.30;27.70;;;;;;;5.12;95.96;99685.99;112158;1196;65691;-78
2021/09/21 02:20:16;;;;;;;30.50;25.80;;;;;;;5.10;95.90;99689.05;112196;1187;61084;-78
2021/09/21 02:22:43;;;;;;;30.70;27.10;;;;;;;5.07;95.77;99690.90;112166;1196;62684;-80
2021/09/21 02:25:09;;;;;;;33.20;27.00;;;;;;;5.06;96.00;99692.38;111891;1195;61068;-78
2021/09/21 02:27:36;;;;;;;34.10;30.30;;;;;;;5.05;96.08;99692.91;112142;1195;60966;-80
2021/09/21 02:30:04;;;;;;;36.50;30.90;;;;;;;5.06;96.20;99694.30;112215;1196;66028;-79
2021/09/21 02:32:30;;;;;;;35.90;31.00;;;;;;;5.06;96.24;99697.98;112206;1196;61065;-79
2021/09/21 02:34:57;;;;;;;32.30;28.60;;;;;;;5.06;96.12;99701.19;112146;1196;71801;-79
2021/09/21 02:37:24;;;;;;;34.10;27.40;;;;;;;5.05;96.22;99702.26;112131;1196;60988;-79
2021/09/21 02:39:50;;;;;;;31.80;26.00;;;;;;;5.06;96.28;99704.54;111908;1196;61152;-79
2021/09/21 02:42:17;;;;;;;27.50;24.50;;;;;;;5.08;96.39;99700.40;112131;1196;66019;-79
2021/09/21 02:44:44;;;;;;;26.30;22.20;;;;;;;5.11;96.32;99700.48;112065;1196;60941;-79
2021/09/21 02:47:11;;;;;;;29.00;25.00;;;;;;;5.14;96.26;99700.38;112125;1195;62687;-79
2021/09/21 02:49:39;;;;;;;30.00;23.60;;;;;;;5.20;96.17;99704.93;112163;1195;61139;-79
2021/09/21 02:52:06;;;;;;;26.70;22.50;;;;;;;5.24;96.08;99710.95;112141;1196;61027;-79
2021/09/21 02:54:32;;;;;;;30.20;25.60;;;;;;;5.30;96.11;99719.93;111925;1186;67673;-79
2021/09/21 02:56:59;;;;;;;22.70;20.20;;;;;;;5.37;96.24;99716.35;112173;1196;61053;-79
2021/09/21 02:59:26;;;;;;;23.80;21.20;;;;;;;5.43;96.14;99717.36;112138;1196;63896;-79
2021/09/21 03:01:52;;;;;;;26.70;22.70;;;;;;;5.49;96.12;99719.10;112121;1196;61049;-79
2021/09/21 03:04:26;;;;;;;26.90;22.90;;;;;;;5.52;96.21;99723.77;112176;1195;61042;-79
2021/09/21 03:06:59;;;;;;;27.10;22.90;;;;;;;5.54;96.22;99726.16;112183;1195;67000;-78
2021/09/21 03:12:00;;;;;;;29.70;24.70;;;;;;;5.60;96.16;99726.46;112034;1196;62395;-79
2021/09/21 03:17:19;;;;;;;32.70;29.00;;;;;;;5.60;96.28;99729.28;112186;1196;61027;-79
2021/09/21 03:19:45;;;;;;;32.80;29.40;;;;;;;5.63;96.39;99729.54;112138;1196;64937;-79
2021/09/21 03:22:12;;;;;;;35.50;29.50;;;;;;;5.64;96.52;99730.20;112143;1195;61010;-80
2021/09/21 03:24:39;;;;;;;30.90;26.80;;;;;;;5.63;96.56;99728.28;111884;1195;64697;-79
2021/09/21 03:27:06;;;;;;;32.40;27.50;;;;;;;5.61;96.69;99727.84;111865;1195;60998;-79
2021/09/21 03:29:32;;;;;;;29.50;25.70;;;;;;;5.59;96.79;99727.23;112185;1195;61081;-78
2021/09/21 03:31:59;;;;;;;28.50;24.10;;;;;;;5.57;96.92;99731.69;112177;1196;64451;-81
2021/09/21 03:34:26;;;;;;;32.30;26.20;;;;;;;5.57;97.09;99733.45;112200;1195;61068;-80
2021/09/21 03:36:53;;;;;;;31.70;27.10;;;;;;;5.57;97.13;99733.82;112237;1196;64993;-80
2021/09/21 03:39:21;;;;;;;37.30;28.70;;;;;;;5.57;97.23;99735.56;112237;1195;61056;-80
2021/09/21 03:41:49;;;;;;;31.10;27.20;;;;;;;5.57;97.33;99736.97;111993;1196;61030;-78
2021/09/21 03:44:15;;;;;;;30.60;26.40;;;;;;;5.58;97.35;99737.83;112151;1196;66161;-83
2021/09/21 03:46:42;;;;;;;32.60;29.10;;;;;;;5.58;97.41;99730.61;112052;1196;61004;-80
2021/09/21 03:49:09;;;;;;;32.20;27.50;;;;;;;5.56;97.39;99728.38;112225;1195;62687;-79
2021/09/21 03:51:36;;;;;;;31.80;28.30;;;;;;;5.51;97.40;99721.84;111900;1195;61020;-80
2021/09/21 03:54:04;;;;;;;32.10;27.70;;;;;;;5.48;97.45;99730.23;112145;1195;61005;-80
2021/09/21 03:56:31;;;;;;;32.50;27.90;;;;;;;5.45;97.54;99732.98;112133;1194;66004;-80
2021/09/21 03:58:58;;;;;;;34.00;28.10;;;;;;;5.44;97.76;99734.41;112144;1194;61030;-79
2021/09/21 04:01:24;;;;;;;34.80;28.00;;;;;;;5.45;97.85;99734.03;112164;1196;64051;-78
2021/09/21 04:03:51;;;;;;;35.30;29.10;;;;;;;5.49;98.06;99735.33;112127;1196;61099;-78
2021/09/21 04:06:17;;;;;;;35.80;32.00;;;;;;;5.53;98.25;99731.65;112184;1195;61045;-79
2021/09/21 04:08:44;;;;;;;34.60;28.60;;;;;;;5.58;98.25;99730.98;112128;1195;64341;-78
2021/09/21 04:11:11;;;;;;;34.20;27.50;;;;;;;5.60;98.28;99728.77;112151;1196;61062;-78
2021/09/21 04:13:38;;;;;;;33.20;26.00;;;;;;;5.63;98.34;99730.08;112166;1194;64228;-78
2021/09/21 04:16:04;;;;;;;30.30;27.00;;;;;;;5.66;98.50;99730.86;112152;1196;61016;-78
2021/09/21 04:18:31;;;;;;;32.40;25.70;;;;;;;5.69;98.54;99731.80;112121;1195;61025;-78
2021/09/21 04:20:58;;;;;;;33.30;28.20;;;;;;;5.71;98.58;99730.84;111904;1196;65695;-78
2021/09/21 04:23:24;;;;;;;33.60;27.70;;;;;;;5.76;98.80;99732.10;112157;1195;60994;-78
2021/09/21 04:25:51;;;;;;;33.00;27.30;;;;;;;5.81;98.84;99727.52;112152;1195;64053;-79
2021/09/21 04:28:20;;;;;;;33.40;28.40;;;;;;;5.85;98.91;99726.83;112166;1195;61058;-78
2021/09/21 04:30:49;;;;;;;32.50;27.90;;;;;;;5.88;98.90;99725.81;112201;1196;61116;-79
2021/09/21 04:33:16;;;;;;;36.30;29.60;;;;;;;5.92;98.92;99723.75;112181;1196;64403;-80
2021/09/21 04:35:43;;;;;;;38.10;29.20;;;;;;;5.98;98.96;99725.34;112212;1196;61138;-79
2021/09/21 04:38:11;;;;;;;36.30;30.30;;;;;;;6.00;98.94;99728.96;112155;1196;64114;-80
2021/09/21 04:40:39;;;;;;;33.10;29.10;;;;;;;6.04;99.01;99733.05;112263;1195;60949;-78
2021/09/21 04:43:05;;;;;;;35.10;28.80;;;;;;;6.09;99.05;99739.23;112203;1195;60976;-77
2021/09/21 04:45:36;;;;;;;37.00;31.10;;;;;;;6.13;99.03;99736.08;112170;1196;64707;-78
2021/09/21 04:48:04;;;;;;;36.10;30.80;;;;;;;6.19;99.02;99737.27;112186;1194;61077;-78
2021/09/21 04:50:31;;;;;;;37.60;31.00;;;;;;;6.26;99.08;99739.13;112147;1196;62446;-78
2021/09/21 04:52:58;;;;;;;36.40;31.80;;;;;;;6.38;98.94;99739.53;112169;1195;61071;-78
2021/09/21 04:55:24;;;;;;;34.20;30.00;;;;;;;6.57;98.79;99744.13;111927;1195;61058;-78
2021/09/21 04:57:51;;;;;;;39.10;31.70;;;;;;;6.70;98.56;99745.73;111949;1195;66981;-78
2021/09/21 05:00:18;;;;;;;33.10;29.40;;;;;;;6.78;98.49;99751.60;111939;1195;60979;-78
2021/09/21 05:02:45;;;;;;;35.70;30.10;;;;;;;6.80;98.55;99751.88;111990;1196;65009;-79
2021/09/21 05:05:12;;;;;;;41.00;34.50;;;;;;;6.81;98.51;99755.19;112138;1196;60976;-78
2021/09/21 05:07:38;;;;;;;40.10;33.10;;;;;;;6.84;98.63;99763.37;112128;1195;61058;-78
2021/09/21 05:10:06;;;;;;;39.00;29.50;;;;;;;6.89;98.72;99765.13;112122;1195;66008;-78
2021/09/21 05:12:32;;;;;;;35.30;30.90;;;;;;;6.96;98.80;99764.86;112135;1195;61051;-79
2021/09/21 05:14:59;;;;;;;46.40;38.90;;;;;;;7.02;98.93;99768.48;111924;1196;65076;-79
2021/09/21 05:17:26;;;;;;;41.70;33.40;;;;;;;7.09;98.94;99770.00;112181;1187;61049;-78
2021/09/21 05:19:52;;;;;;;42.80;38.40;;;;;;;7.16;98.84;99776.05;112206;1195;61045;-77
2021/09/21 05:22:19;;;;;;;37.50;33.60;;;;;;;7.24;98.81;99781.02;112135;1195;65825;-79
2021/09/21 05:24:45;;;;;;;32.30;28.50;;;;;;;7.38;98.81;99780.11;112162;1195;61444;-78
2021/09/21 05:27:12;;;;;;;32.30;27.70;;;;;;;7.77;98.21;99783.28;112000;1196;64120;-79
2021/09/21 05:29:39;;;;;;;30.70;24.80;;;;;;;8.14;97.58;99786.95;112161;1186;61045;-80
2021/09/21 05:32:06;;;;;;;29.60;24.70;;;;;;;8.37;97.03;99782.04;112217;1186;61056;-81
2021/09/21 05:34:32;;;;;;;29.30;24.30;;;;;;;8.66;96.60;99783.23;112007;1195;66068;-80
2021/09/21 05:36:59;;;;;;;27.50;22.50;;;;;;;8.95;95.95;99785.23;112306;1196;61180;-80
2021/09/21 05:39:26;;;;;;;28.00;24.40;;;;;;;8.96;95.78;99786.96;112266;1195;62652;-80
2021/09/21 05:41:52;;;;;;;27.40;23.60;;;;;;;8.98;95.76;99793.26;111770;1196;61163;-78
2021/09/21 05:44:19;;;;;;;28.40;23.40;;;;;;;9.13;95.50;99794.84;111906;1195;61146;-79
2021/09/21 05:46:46;;;;;;;27.10;22.00;;;;;;;9.26;95.33;99798.45;112204;1195;64612;-79
2021/09/21 05:49:13;;;;;;;28.30;23.60;;;;;;;9.27;95.25;99793.96;112205;1195;61046;-80
2021/09/21 05:51:39;;;;;;;29.10;24.40;;;;;;;9.37;95.17;99797.39;112254;1194;62606;-80
2021/09/21 05:54:06;;;;;;;28.10;24.80;;;;;;;9.42;94.93;99797.45;112172;1195;61061;-80
2021/09/21 05:56:33;;;;;;;27.00;23.90;;;;;;;9.44;94.87;99792.96;112069;1196;61078;-79
2021/09/21 05:59:00;;;;;;;26.90;22.90;;;;;;;9.48;94.87;99798.27;112174;1195;66141;-79
2021/09/21 06:01:29;;;;;;;26.90;22.30;;;;;;;9.49;94.70;99804.08;112176;1195;61080;-79
2021/09/21 06:03:57;;;;;;;24.10;21.50;;;;;;;9.51;94.67;99806.81;112203;1196;64032;-80
2021/09/21 06:06:24;;;;;;;26.40;22.90;;;;;;;9.56;94.72;99811.69;112208;1196;61049;-80
2021/09/21 06:08:51;;;;;;;25.70;22.80;;;;;;;9.68;94.62;99807.55;112127;1194;61097;-80
2021/09/21 06:11:20;;;;;;;24.40;21.70;;;;;;;9.82;94.50;99808.80;111998;1195;64319;-79
2021/09/21 06:13:47;;;;;;;;;;;;;;;9.82;94.21;99815.91;112024;1196;61042;-79
2021/09/21 06:16:16;;;;;;;22.50;20.10;;;;;;;9.80;93.89;99817.21;112128;1196;62659;-79
2021/09/21 06:18:42;;;;;;;23.60;20.50;;;;;;;9.82;93.45;99820.16;112194;1194;61007;-79
2021/09/21 06:21:09;;;;;;;23.10;20.10;;;;;;;9.84;93.39;99821.82;112168;1195;61065;-79
2021/09/21 06:23:36;;;;;;;24.80;21.20;;;;;;;10.02;93.25;99817.73;112172;1195;65703;-78
2021/09/21 06:26:02;;;;;;;23.30;20.70;;;;;;;10.33;93.00;99818.11;112235;1196;61045;-79
2021/09/21 06:28:29;;;;;;;23.60;21.20;;;;;;;10.58;92.54;99822.08;112203;1196;64052;-80
2021/09/21 06:30:56;;;;;;;24.30;21.10;;;;;;;10.58;91.57;99825.45;112215;1196;60963;-78
2021/09/21 06:33:24;;;;;;;23.40;20.90;;;;;;;10.40;91.63;99826.98;112163;1195;61162;-79
2021/09/21 06:35:51;;;;;;;25.50;22.50;;;;;;;10.22;91.95;99827.49;112209;1195;65674;-80
2021/09/21 06:38:18;;;;;;;24.50;21.70;;;;;;;10.20;92.53;99827.64;111840;1186;61158;-81
2021/09/21 06:40:44;;;;;;;28.50;24.20;;;;;;;10.31;92.07;99819.44;112253;1196;62433;-79
2021/09/21 06:43:11;;;;;;;26.50;23.70;;;;;;;10.44;91.87;99819.25;112222;1195;61039;-83
2021/09/21 06:45:38;;;;;;;26.70;23.90;;;;;;;10.39;91.79;99816.54;112046;1195;60965;-82
2021/09/21 06:48:05;;;;;;;27.10;23.90;;;;;;;10.45;91.80;99812.48;112212;1195;64325;-80
2021/09/21 06:50:32;;;;;;;27.60;24.20;;;;;;;10.70;91.57;99812.02;111948;1195;61055;-80
2021/09/21 06:52:59;;;;;;;25.50;22.90;;;;;;;10.88;91.13;99816.39;112154;1196;64166;-81
2021/09/21 06:55:26;;;;;;;24.00;21.40;;;;;;;10.81;90.62;99818.73;112215;1195;61045;-78
2021/09/21 06:57:55;;;;;;;25.70;22.30;;;;;;;10.67;90.78;99823.20;112185;1196;60945;-78
2021/09/21 07:00:23;;;;;;;26.20;23.50;;;;;;;10.68;90.91;99831.29;112143;1195;65863;-78
2021/09/21 07:02:54;;;;;;;23.40;20.90;;;;;;;10.74;90.82;99834.37;112171;1196;61059;-80
2021/09/21 07:05:21;;;;;;;22.80;20.60;;;;;;;10.80;90.48;99828.04;112133;1181;63711;-78
2021/09/21 07:07:50;;;;;;;27.40;23.30;;;;;;;10.81;90.28;99819.96;112191;1195;60947;-78
2021/09/21 07:10:19;;;;;;;24.00;21.40;;;;;;;10.87;90.48;99817.33;112107;1196;61168;-78
2021/09/21 07:12:47;;;;;;;24.20;21.70;;;;;;;11.02;90.62;99812.73;111997;1195;66682;-79
2021/09/21 07:15:14;;;;;;;26.20;21.20;;;;;;;11.14;90.16;99814.22;112145;1196;60940;-80
2021/09/21 07:17:41;;;;;;;20.30;17.50;;;;;;;11.20;89.84;99815.99;111955;1196;64144;-78
2021/09/21 07:20:08;;;;;;;22.50;19.40;;;;;;;11.15;89.73;99816.64;112178;1190;61059;-78
2021/09/21 07:22:35;;;;;;;22.50;19.30;;;;;;;11.00;89.60;99818.94;111936;1195;61062;-78
2021/09/21 07:25:03;;;;;;;20.80;18.30;;;;;;;10.92;89.65;99820.92;111767;1196;64677;-78
2021/09/21 07:27:29;;;;;;;20.20;18.10;;;;;;;10.95;89.60;99827.88;112086;1196;61031;-80
2021/09/21 07:29:56;;;;;;;21.00;17.60;;;;;;;11.09;89.56;99827.66;111867;1195;62469;-79
2021/09/21 07:32:23;;;;;;;19.50;17.20;;;;;;;11.19;89.54;99831.90;111854;1195;61181;-79
2021/09/21 07:34:51;;;;;;;18.90;16.50;;;;;;;11.19;88.95;99831.03;111939;1186;61030;-79
2021/09/21 07:37:18;;;;;;;17.30;15.50;;;;;;;11.19;89.07;99832.95;112148;1196;66046;-78
2021/09/21 07:39:44;;;;;;;18.00;15.50;;;;;;;11.22;88.81;99834.75;111974;1196;61103;-78
2021/09/21 07:42:17;;;;;;;17.10;15.10;;;;;;;11.23;88.44;99835.79;112352;1196;64999;-91
2021/09/21 07:44:46;;;;;;;17.90;16.00;;;;;;;11.15;88.24;99835.84;112244;1195;61141;-82
2021/09/21 07:47:14;;;;;;;20.30;16.80;;;;;;;11.08;88.07;99840.85;112190;1195;61056;-82
2021/09/21 07:49:40;;;;;;;20.80;16.60;;;;;;;11.06;88.04;99842.23;112199;1196;65733;-82
2021/09/21 07:52:08;;;;;;;18.40;16.20;;;;;;;11.17;88.00;99841.64;112246;1196;61067;-82
2021/09/21 07:54:35;;;;;;;18.40;16.50;;;;;;;11.32;88.21;99839.91;112019;1195;64046;-84
2021/09/21 07:57:02;;;;;;;20.10;17.00;;;;;;;11.55;88.39;99843.20;112235;1196;61023;-84
2021/09/21 07:59:29;;;;;;;17.70;15.60;;;;;;;11.82;87.67;99843.98;112080;1195;61080;-82
2021/09/21 08:01:56;;;;;;;19.20;14.70;;;;;;;12.10;87.36;99845.16;112228;1196;64751;-82
2021/09/21 08:04:22;;;;;;;17.30;15.10;;;;;;;12.29;87.08;99848.48;112260;1195;61049;-82
2021/09/21 08:06:49;;;;;;;16.80;15.00;;;;;;;12.38;86.21;99844.06;112273;1196;64114;-82
2021/09/21 08:09:16;;;;;;;14.60;12.90;;;;;;;12.51;85.66;99844.30;112218;1195;60975;-82
2021/09/21 08:11:43;;;;;;;17.20;14.70;;;;;;;12.69;85.17;99842.69;112251;1196;61061;-82
2021/09/21 08:14:10;;;;;;;17.00;13.80;;;;;;;12.92;85.25;99838.23;112092;1196;66053;-84
2021/09/21 08:16:38;;;;;;;16.70;14.90;;;;;;;13.06;84.87;99841.94;112225;1195;60979;-82
2021/09/21 08:19:05;;;;;;;17.10;15.30;;;;;;;13.18;84.57;99840.61;112280;1195;63683;-82
2021/09/21 08:21:31;;;;;;;16.90;14.60;;;;;;;13.35;84.15;99835.47;112074;1195;61068;-84
2021/09/21 08:23:58;;;;;;;15.40;13.80;;;;;;;13.47;84.06;99836.31;112261;1195;61071;-82
2021/09/21 08:26:25;;;;;;;14.20;12.60;;;;;;;13.71;84.21;99830.98;112231;1196;67301;-81
2021/09/21 08:28:52;;;;;;;13.70;12.30;;;;;;;13.97;83.13;99834.77;112239;1196;61043;-82
2021/09/21 08:31:18;;;;;;;14.30;12.80;;;;;;;13.93;82.48;99839.86;112214;1195;64020;-82
2021/09/21 08:33:45;;;;;;;13.50;12.00;;;;;;;13.88;82.24;99842.54;112224;1196;60992;-84
2021/09/21 08:36:11;;;;;;;14.40;11.90;;;;;;;13.83;81.56;99849.84;112265;1195;61031;-82
2021/09/21 08:38:38;;;;;;;13.10;11.80;;;;;;;13.80;81.44;99853.58;112236;1195;65819;-82
2021/09/21 08:41:05;;;;;;;13.30;11.20;;;;;;;13.79;81.14;99851.68;112275;1195;61062;-82
2021/09/21 08:43:32;;;;;;;13.80;11.90;;;;;;;13.62;80.88;99849.25;112210;1196;62641;-82
2021/09/21 08:45:59;;;;;;;15.10;12.50;;;;;;;13.47;81.12;99844.33;112224;1195;60992;-82
2021/09/21 08:48:25;;;;;;;14.40;12.20;;;;;;;13.46;81.42;99843.33;112103;1196;61069;-82
2021/09/21 08:50:52;;;;;;;14.10;11.70;;;;;;;13.54;81.76;99843.91;112233;1195;64443;-82
2021/09/21 08:53:18;;;;;;;15.30;12.00;;;;;;;13.59;81.54;99843.17;112026;1195;61081;-82
2021/09/21 08:55:46;;;;;;;13.20;11.40;;;;;;;13.59;80.72;99845.17;112261;1196;62415;-82
2021/09/21 08:58:13;;;;;;;14.00;12.20;;;;;;;13.59;80.04;99851.95;112298;1196;60995;-82
2021/09/21 09:00:40;;;;;;;15.70;12.90;;;;;;;13.66;80.74;99850.05;112241;1196;61062;-82
2021/09/21 09:03:10;;;;;;;14.60;10.90;;;;;;;13.83;80.39;99851.41;112203;1195;64663;-82
2021/09/21 09:05:55;;;;;;;;;;;;;;;14.06;79.34;99854.39;112233;1195;61164;-82
2021/09/21 09:08:30;;;;;;;;;;;;;;;14.20;79.20;99852.00;112215;1196;64028;-80
2021/09/21 09:11:13;;;;;;;;;;;;;;;14.40;78.11;99849.34;112276;1196;61059;-81
2021/09/21 09:13:41;;;;;;;;;;;;;;;14.69;78.23;99840.90;112057;1196;61051;-81
2021/09/21 09:16:12;;;;;;;;;;;;;;;14.84;78.41;99840.41;112241;1196;66106;-81
2021/09/21 09:18:40;;;;;;;;;;;;;;;14.84;77.55;99841.84;112262;1195;61082;-81
2021/09/21 09:21:08;;;;;;;;;;;;;;;14.83;77.10;99843.52;112301;1195;63913;-82
2021/09/21 09:23:34;;;;;;;;;;;;;;;14.80;76.62;99838.90;112271;1196;61172;-81
2021/09/21 09:26:01;;;;;;;;;;;;;;;14.87;75.89;99839.48;112292;1195;60986;-83
2021/09/21 09:28:28;;;;;;;;;;;;;;;14.96;75.75;99838.30;112272;1195;61052;-83
2021/09/21 09:30:55;;;;;;;;;;;;;;;15.06;75.48;99841.00;112240;1195;61011;-83
2021/09/21 09:33:22;;;;;;;;;;;;;;;15.22;75.55;99835.73;112298;1196;62511;-81
2021/09/21 09:35:50;;;;;;;;;;;;;;;15.18;75.29;99839.03;112248;1196;61116;-83
2021/09/21 09:38:19;;;;;;;;;;;;;;;15.05;75.38;99844.97;112287;1196;60953;-83
2021/09/21 09:40:50;;;;;;;;;;;;;;;14.93;75.11;99846.37;112122;1196;65789;-83
2021/09/21 09:43:19;;;;;;;;;;;;;;;14.90;74.93;99843.55;112333;1196;60976;-85
2021/09/21 09:46:18;;;;;;;;;;;;;;;;;;;;;
2021/09/21 09:48:58;;;;;;;;;;;;;;;15.20;74.67;99836.23;113561;1196;60918;-83
2021/09/21 09:51:25;;;;;;;;;;;;;;;15.40;74.36;99832.45;112428;1195;61007;-89
2021/09/21 09:53:51;;;;;;;;;;;;;;;15.30;73.85;99835.98;112279;1195;61042;-89
2021/09/21 09:56:18;;;;;;;;;;;;;;;15.19;73.33;99837.35;112283;1196;60997;-88
2021/09/21 09:58:56;;;;;;;;;;;;;;;15.12;72.14;99839.84;112403;1195;61081;-91
2021/09/21 10:01:23;;;;;;;;;;;;;;;15.33;72.44;99839.92;112230;1195;61056;-80
2021/09/21 10:03:50;;;;;;;;;;;;;;;15.43;71.56;99834.34;112225;1195;61090;-78
2021/09/21 10:06:16;;;;;;;;;;;;;;;15.33;70.63;99835.23;112184;1196;65996;-80
2021/09/21 10:08:44;;;;;;;;;;;;;;;15.17;70.33;99838.20;112174;1195;61160;-80
2021/09/21 10:11:10;;;;;;;;;;;;;;;15.05;70.14;99836.77;112234;1196;63997;-80
2021/09/21 10:13:37;;;;;;;;;;;;;;;15.02;69.96;99839.33;112236;1195;61090;-80
2021/09/21 10:16:04;;;;;;;;;;;;;;;15.03;69.56;99842.77;112329;1195;61059;-80
2021/09/21 10:18:31;;;;;;;;;;;;;;;15.08;70.18;99841.70;112278;1195;64702;-80
2021/09/21 10:20:59;;;;;;;;;;;;;;;15.15;70.01;99840.82;112261;1196;61000;-78
2021/09/21 10:23:33;;;;;;;;;;;;;;;15.42;70.68;99837.98;111949;1196;62926;-78
2021/09/21 10:26:13;;;;;;;;;;;;;;;15.74;70.33;99836.95;112181;1196;61052;-80
2021/09/21 10:28:40;;;;;;;;;;;;;;;16.04;70.23;99831.81;112221;1195;60986;-78
2021/09/21 10:31:11;;;;;;;;;;;;;;;16.20;67.57;99826.05;112182;1195;65909;-79
2021/09/21 10:33:38;;;;;;;;;;;;;;;16.22;67.11;99822.86;112225;1197;61045;-79
2021/09/21 10:36:14;;;;;;;;;;;;;;;16.37;66.77;99827.48;112212;1195;64889;-79
2021/09/21 10:38:50;;;;;;;;;;;;;;;16.53;66.07;99830.34;112169;1196;61107;-79
2021/09/21 10:41:17;;;;;;;;;;;;;;;16.73;63.90;99835.42;112176;1196;61028;-79
2021/09/21 10:43:44;;;;;;;;;;;;;;;16.55;61.91;99830.16;112182;1196;66061;-79
2021/09/21 10:46:13;;;;;;;;;;;;;;;16.37;63.18;99834.45;112176;1196;60974;-79
2021/09/21 10:48:41;;;;;;;;;;;;;;;16.38;63.98;99834.55;112195;1194;65410;-80
2021/09/21 10:51:08;;;;;;;;;;;;;;;16.34;62.39;99835.05;112149;1195;61161;-79
2021/09/21 10:53:36;;;;;;;;;;;;;;;16.31;61.88;99829.71;112164;1195;61065;-79
2021/09/21 10:56:14;;;;;;;;;;;;;;;16.45;62.50;99826.13;112267;1194;66012;-79
2021/09/21 10:58:52;;;;;;;;;;;;;;;16.63;62.23;99818.62;112192;1195;61059;-79
2021/09/21 11:01:18;;;;;;;;;;;;;;;16.63;61.86;99819.36;112157;1196;63827;-80
2021/09/21 11:03:46;;;;;;;;;;;;;;;16.46;62.11;99820.29;112168;1196;60988;-79
2021/09/21 11:06:14;;;;;;;;;;;;;;;16.26;61.87;99823.64;112050;1196;61042;-79
2021/09/21 11:08:41;;;;;;;;;;;;;;;16.15;61.37;99821.08;112192;1197;66013;-79
2021/09/21 11:11:08;;;;;;;;;;;;;;;16.05;61.48;99822.39;112033;1197;60940;-79
2021/09/21 11:13:37;;;;;;;;;;;;;;;16.04;62.08;99822.32;112031;1196;64030;-79
2021/09/21 11:16:07;;;;;;;;;;;;;;;16.08;61.89;99820.76;112156;1196;61042;-79
2021/09/21 11:18:36;;;;;;;;;;;;;;;16.09;62.03;99821.89;112165;1196;61164;-79
2021/09/21 11:21:04;;;;;;;;;;;;;;;16.21;61.25;99820.26;112253;1196;66013;-79
2021/09/21 11:23:32;;;;;;;;;;;;;;;16.37;60.25;99807.90;112254;1196;60976;-79
2021/09/21 11:26:03;;;;;;;;;;;;;;;16.49;59.95;99805.77;112270;1196;63692;-79
2021/09/21 11:28:31;;;;;;;;;;;;;;;16.66;60.42;99800.45;112266;1195;60974;-79
2021/09/21 11:30:58;;;;;;;;;;;;;;;16.73;59.60;99800.20;111980;1195;61512;-79
2021/09/21 11:33:27;;;;;;;;;;;;;;;16.69;59.67;99801.29;112234;1197;66026;-79
2021/09/21 11:35:55;;;;;;;;;;;;;;;16.69;59.42;99802.83;112196;1196;61080;-79
2021/09/21 11:38:22;;;;;;;;;;;;;;;16.67;60.83;99802.45;112034;1196;63943;-79
2021/09/21 11:40:51;;;;;;;;;;;;;;;16.62;60.09;99805.27;111941;1195;61058;-79
2021/09/21 11:43:18;;;;;;;;;;;;;;;16.45;59.68;99807.64;112232;1195;60940;-79
2021/09/21 11:45:46;;;;;;;;;;;;;;;16.31;59.91;99806.61;112157;1196;64681;-79
2021/09/21 11:48:14;;;;;;;;;;;;;;;16.20;60.21;99806.19;112184;1200;61081;-79
2021/09/21 11:50:41;;;;;;;;;;;;;;;16.02;59.35;99804.17;112176;1195;62667;-79